Chautauqua County-Jamestown Airport Jamestown US
ICAO: KJHW
IATA: JHW
Category: Medium
Scheduled Services: No

Elevation: 1723 ft
TransAlt. 18000 ft.

Airport Communications:
ERIE APP/DEP:126.05
AWOS 3:118.425
BUFFALO RDO:114.7
CTAF/UNICOM:122.7

KJHW Zoom In..

If you have problems with the map follow the link
https://www.worldairports.se/pages/airport.php?
ICAO=KJHW

Runways:

(A) RW 07 length 5299 ft width 100 ft
---- / hdg 69

(B) RW 13 length 4500 ft width 100 ft
---- / hdg 129

(C) RW 25 length 5299 ft width 100 ft
ILS 109.70 / hdg 249

(D) RW 31 length 4500 ft width 100 ft
---- / hdg 309

Location; KJHW
Day. 27 / Time. 05.56 Zulu
* Altimeter: 29.68
* Temperature: -01° c. -30.2°f.
* Wind from: 260° Speed 10 kn.
Dewpoint: -02° c.
Visibility: 1 m.
Clouds: Overcast 500 ft.
Conditions: Light Snow.Conditions: Mist.

KJHW 270556Z AUTO 26010KT 1 3/4SM -SN BR OVC005 M01/M02 A2968 RMK AO2 CIG 004V009 SLP072 P0000 60002 T10111017 11011 21011 58004 FZRANO


Wind From 260°
Speed 10 kn.

 
 
jpsmedia worldairports.se 2020   terms of use